createdAt,value
2023-05-07T00:01:29.656Z,102154.13
2023-05-07T00:03:56.448Z,102136.16
2023-05-07T00:06:23.948Z,102132.38
2023-05-07T00:08:50.829Z,102122.97
2023-05-07T00:11:17.442Z,102147.41
2023-05-07T00:13:44.009Z,102151.13
2023-05-07T00:16:10.837Z,102129.78
2023-05-07T00:18:37.462Z,102132.19
2023-05-07T00:21:04.329Z,102099.75
2023-05-07T00:23:30.869Z,102138.81
2023-05-07T00:25:57.678Z,102120.53
2023-05-07T00:28:24.276Z,102116.50
2023-05-07T00:30:50.952Z,102130.47
2023-05-07T00:33:17.569Z,102129.47
2023-05-07T00:35:44.289Z,102127.88
2023-05-07T00:38:10.826Z,102060.31
2023-05-07T00:40:37.452Z,102049.81
2023-05-07T00:43:04.115Z,102135.56
2023-05-07T00:45:31.072Z,102129.69
2023-05-07T00:48:01.716Z,102126.31
2023-05-07T00:53:09.705Z,102078.19
2023-05-07T00:55:37.488Z,102129.38
2023-05-07T00:58:04.222Z,102129.59
2023-05-07T01:00:30.942Z,102123.63
2023-05-07T01:02:57.666Z,102117.84
2023-05-07T01:05:26.680Z,102136.13
2023-05-07T01:07:56.094Z,102137.19
2023-05-07T01:10:23.793Z,102113.50
2023-05-07T01:12:51.453Z,102132.09
2023-05-07T01:15:19.193Z,102095.53
2023-05-07T01:17:46.101Z,102118.59
2023-05-07T01:20:13.901Z,102127.19
2023-05-07T01:22:41.571Z,102129.47
2023-05-07T01:25:09.332Z,102124.38
2023-05-07T01:27:40.501Z,102134.31
2023-05-07T01:30:08.161Z,102123.81
2023-05-07T01:32:47.750Z,102121.59
2023-05-07T01:35:19.706Z,102116.78
2023-05-07T01:37:48.128Z,102121.09
2023-05-07T01:40:15.411Z,102121.41
2023-05-07T01:42:44.488Z,102118.91
2023-05-07T01:45:11.564Z,102052.13
2023-05-07T01:47:38.930Z,102118.03
2023-05-07T01:50:07.311Z,102107.94
2023-05-07T01:52:34.137Z,102108.22
2023-05-07T01:55:00.790Z,102117.66
2023-05-07T01:57:27.549Z,102115.72
2023-05-07T01:59:54.140Z,102117.66
2023-05-07T02:02:20.849Z,102049.75
2023-05-07T02:04:47.565Z,102090.31
2023-05-07T02:07:14.159Z,102134.59
2023-05-07T02:09:40.817Z,102135.75
2023-05-07T02:12:07.499Z,102134.69
2023-05-07T02:14:34.059Z,102127.47
2023-05-07T02:17:00.656Z,102109.78
2023-05-07T02:19:27.521Z,102141.72
2023-05-07T02:21:54.201Z,102128.53
2023-05-07T02:24:20.886Z,102092.03
2023-05-07T02:26:47.426Z,102067.59
2023-05-07T02:29:14.073Z,102158.13
2023-05-07T02:31:40.678Z,102141.59
2023-05-07T02:34:07.324Z,102130.91
2023-05-07T02:36:33.912Z,102157.47
2023-05-07T02:39:00.466Z,102114.56
2023-05-07T02:41:27.112Z,102158.28
2023-05-07T02:43:53.718Z,102151.13
2023-05-07T02:46:20.421Z,102157.38
2023-05-07T02:48:47.063Z,102144.47
2023-05-07T02:51:13.651Z,102162.69
2023-05-07T02:53:40.189Z,102165.59
2023-05-07T02:56:07.549Z,102169.91
2023-05-07T02:58:34.199Z,102152.09
2023-05-07T03:01:00.940Z,102159.66
2023-05-07T03:03:27.564Z,102162.78
2023-05-07T03:05:54.131Z,102160.94
2023-05-07T03:08:20.796Z,102152.88
2023-05-07T03:10:47.732Z,102149.81
2023-05-07T03:13:14.337Z,102133.50
2023-05-07T03:15:41.172Z,102126.47
2023-05-07T03:18:08.030Z,102090.47
2023-05-07T03:20:34.867Z,102158.56
2023-05-07T03:23:01.491Z,102159.91
2023-05-07T03:25:28.634Z,102163.66
2023-05-07T03:27:55.243Z,102161.72
2023-05-07T03:30:21.955Z,102169.34
2023-05-07T03:32:48.840Z,102142.69
2023-05-07T03:35:15.560Z,102096.28
2023-05-07T03:37:42.161Z,102150.28
2023-05-07T03:40:11.758Z,102154.31
2023-05-07T03:42:38.860Z,102134.06
2023-05-07T03:45:06.371Z,102123.41
2023-05-07T03:47:33.064Z,102148.06
2023-05-07T03:50:00.665Z,102053.59
2023-05-07T03:52:27.327Z,102141.81
2023-05-07T03:54:54.905Z,102158.84
2023-05-07T03:57:21.958Z,102154.91
2023-05-07T03:59:48.669Z,102103.88
2023-05-07T04:02:15.300Z,102165.31
2023-05-07T04:04:41.998Z,102167.13
2023-05-07T04:07:08.660Z,102173.50
2023-05-07T04:09:35.320Z,102149.31
2023-05-07T04:12:02.505Z,102152.88
2023-05-07T04:14:29.087Z,102169.53
2023-05-07T04:16:55.816Z,102143.78
2023-05-07T04:19:24.742Z,102176.47
2023-05-07T04:21:51.547Z,102178.75
2023-05-07T04:24:18.129Z,102169.13
2023-05-07T04:26:44.847Z,102129.75
2023-05-07T04:29:11.393Z,102177.41
2023-05-07T04:31:38.111Z,102156.81
2023-05-07T04:34:04.660Z,102175.28
2023-05-07T04:36:31.769Z,102168.19
2023-05-07T04:38:58.309Z,102170.47
2023-05-07T04:41:24.866Z,102171.66
2023-05-07T04:43:52.704Z,102172.41
2023-05-07T04:46:19.325Z,102163.69
2023-05-07T04:48:45.937Z,102178.88
2023-05-07T04:51:12.530Z,102173.09
2023-05-07T04:53:39.084Z,102174.56
2023-05-07T04:56:05.793Z,102170.09
2023-05-07T04:58:33.149Z,102186.47
2023-05-07T05:01:00.418Z,102144.91
2023-05-07T05:03:27.270Z,102190.03
2023-05-07T05:05:54.182Z,102204.47
2023-05-07T05:08:20.818Z,102178.00
2023-05-07T05:10:49.748Z,102144.63
2023-05-07T05:13:16.729Z,102190.03
2023-05-07T05:15:43.615Z,102197.72
2023-05-07T05:18:10.271Z,102193.75
2023-05-07T05:20:37.158Z,102123.13
2023-05-07T05:23:03.903Z,102193.56
2023-05-07T05:25:30.650Z,102198.22
2023-05-07T05:27:57.708Z,102193.47
2023-05-07T05:30:24.496Z,102151.63
2023-05-07T05:32:51.254Z,102188.84
2023-05-07T05:35:18.050Z,102185.66
2023-05-07T05:37:44.656Z,102181.25
2023-05-07T05:40:12.078Z,102174.72
2023-05-07T05:42:38.745Z,102198.88
2023-05-07T05:45:05.960Z,102164.53
2023-05-07T05:47:32.670Z,102194.13
2023-05-07T05:49:59.552Z,102193.84
2023-05-07T05:52:26.151Z,102202.78
2023-05-07T05:54:52.739Z,102178.16
2023-05-07T05:57:19.781Z,102204.09
2023-05-07T05:59:47.707Z,102216.88
2023-05-07T06:02:14.537Z,102154.69
2023-05-07T06:04:41.350Z,102210.06
2023-05-07T06:07:07.947Z,102213.53
2023-05-07T06:09:34.604Z,102175.00
2023-05-07T06:12:01.197Z,102112.56
2023-05-07T06:14:27.729Z,102157.31
2023-05-07T06:16:54.360Z,102219.03
2023-05-07T06:19:24.290Z,102217.06
2023-05-07T06:21:51.594Z,102164.63
2023-05-07T06:24:18.351Z,102225.56
2023-05-07T06:26:44.949Z,102223.31
2023-05-07T06:29:11.583Z,102213.31
2023-05-07T06:31:38.229Z,102226.41
2023-05-07T06:34:05.124Z,102217.59
2023-05-07T06:36:31.837Z,102224.22
2023-05-07T06:38:58.417Z,102196.59
2023-05-07T06:41:25.030Z,102209.88
2023-05-07T06:43:51.654Z,102216.03
2023-05-07T06:46:18.391Z,102018.00
2023-05-07T06:48:44.991Z,102227.56
2023-05-07T06:51:11.601Z,102219.69
2023-05-07T06:53:38.138Z,102168.66
2023-05-07T06:56:04.866Z,102204.31
2023-05-07T06:58:31.423Z,102145.88
2023-05-07T07:00:57.999Z,102224.41
2023-05-07T07:03:24.659Z,102223.63
2023-05-07T07:05:55.028Z,102159.63
2023-05-07T07:08:22.607Z,102224.03
2023-05-07T07:10:49.435Z,102223.88
2023-05-07T07:13:16.149Z,102220.38
2023-05-07T07:15:42.924Z,102226.63
2023-05-07T07:18:09.862Z,102219.19
2023-05-07T07:20:36.516Z,102224.19
2023-05-07T07:23:03.169Z,102208.97
2023-05-07T07:25:29.933Z,102221.00
2023-05-07T07:27:56.553Z,102172.13
2023-05-07T07:30:23.272Z,102210.88
2023-05-07T07:32:49.866Z,102208.69
2023-05-07T07:35:17.350Z,102206.66
2023-05-07T07:37:43.933Z,102212.25
2023-05-07T07:40:11.420Z,102213.47
2023-05-07T07:42:38.150Z,102199.84
2023-05-07T07:45:05.689Z,102067.34
2023-05-07T07:47:32.288Z,102217.00
2023-05-07T07:49:58.983Z,102214.22
2023-05-07T07:52:25.539Z,102220.81
2023-05-07T07:54:52.169Z,102211.22
2023-05-07T07:57:18.740Z,102210.38
2023-05-07T07:59:45.390Z,102213.78
2023-05-07T08:02:12.130Z,102202.03
2023-05-07T08:04:39.032Z,102205.91
2023-05-07T08:07:05.906Z,102212.63
2023-05-07T08:09:32.877Z,102190.13
2023-05-07T08:11:59.537Z,102226.59
2023-05-07T08:14:29.281Z,102222.03
2023-05-07T08:16:56.448Z,102197.44
2023-05-07T08:19:23.676Z,102230.88
2023-05-07T08:21:50.424Z,102232.34
2023-05-07T08:24:17.568Z,102237.78
2023-05-07T08:29:14.020Z,102237.22
2023-05-07T08:31:40.818Z,102226.38
2023-05-07T08:34:09.556Z,102230.31
2023-05-07T08:36:36.808Z,102237.00
2023-05-07T08:39:03.662Z,102236.28
2023-05-07T08:41:30.634Z,102227.47
2023-05-07T08:44:01.314Z,102223.59
2023-05-07T08:46:33.001Z,102146.44
2023-05-07T08:49:01.849Z,102248.94
2023-05-07T08:51:28.772Z,102225.72
2023-05-07T08:53:55.634Z,102189.28
2023-05-07T08:56:22.747Z,102242.03
2023-05-07T08:58:49.799Z,102254.16
2023-05-07T09:01:21.590Z,102214.06
2023-05-07T09:03:48.521Z,102192.38
2023-05-07T09:06:16.361Z,102267.47
2023-05-07T09:08:50.540Z,102268.84
2023-05-07T09:11:17.209Z,102260.44
2023-05-07T09:13:43.865Z,102232.25
2023-05-07T09:16:14.258Z,102254.19
2023-05-07T09:18:44.809Z,102262.66
2023-05-07T09:21:18.900Z,102264.09
2023-05-07T09:23:45.718Z,102269.69
2023-05-07T09:26:14.880Z,102266.91
2023-05-07T09:28:45.008Z,102265.34
2023-05-07T09:31:12.934Z,102267.19
2023-05-07T09:33:40.497Z,102209.94
2023-05-07T09:36:08.660Z,102267.03
2023-05-07T09:38:36.800Z,102266.75
2023-05-07T09:41:12.673Z,102250.66
2023-05-07T09:43:40.704Z,102265.88
2023-05-07T09:46:09.666Z,102256.56
2023-05-07T09:48:39.978Z,102265.31
2023-05-07T09:51:23.999Z,102223.91
2023-05-07T09:53:52.401Z,102247.47
2023-05-07T09:56:22.491Z,102264.19
2023-05-07T09:58:52.640Z,102216.56
2023-05-07T10:01:23.211Z,102254.59
2023-05-07T10:03:51.715Z,102246.16
2023-05-07T10:06:18.670Z,102277.09
2023-05-07T10:08:45.546Z,102244.69
2023-05-07T10:11:13.009Z,102269.97
2023-05-07T10:13:39.806Z,102265.78
2023-05-07T10:16:06.910Z,102263.53
2023-05-07T10:18:34.491Z,102213.63
2023-05-07T10:21:17.153Z,102205.41
2023-05-07T10:23:46.844Z,102276.81
2023-05-07T10:26:16.071Z,102265.84
2023-05-07T10:28:46.146Z,102267.63
2023-05-07T10:32:01.201Z,102269.19
2023-05-07T10:34:33.989Z,102265.84
2023-05-07T10:37:01.484Z,102256.75
2023-05-07T10:39:28.392Z,102272.41
2023-05-07T10:41:55.149Z,102255.00
2023-05-07T10:44:30.913Z,102243.13
2023-05-07T10:47:10.966Z,102263.63
2023-05-07T10:49:58.344Z,102261.19
2023-05-07T10:52:27.277Z,102258.78
2023-05-07T10:55:18.825Z,102261.06
2023-05-07T10:57:45.594Z,102224.50
2023-05-07T11:00:22.480Z,102270.16
2023-05-07T11:03:01.527Z,102263.38
2023-05-07T11:05:30.031Z,102257.34
2023-05-07T11:08:01.221Z,102257.91
2023-05-07T11:10:59.600Z,102247.97
2023-05-07T11:13:46.188Z,102250.44
2023-05-07T11:16:24.235Z,102249.16
2023-05-07T11:18:56.283Z,102249.44
2023-05-07T11:21:39.516Z,102248.47
2023-05-07T11:24:11.206Z,102249.56
2023-05-07T11:26:49.315Z,102251.91
2023-05-07T11:29:22.593Z,102247.00
2023-05-07T11:31:52.171Z,102252.56
2023-05-07T11:34:23.858Z,102240.69
2023-05-07T11:36:50.615Z,102248.25
2023-05-07T11:39:34.307Z,102240.16
2023-05-07T11:42:01.563Z,102235.78
2023-05-07T11:44:48.398Z,102235.41
2023-05-07T11:47:19.957Z,102179.47
2023-05-07T11:49:51.260Z,102224.75
2023-05-07T11:52:19.514Z,102236.63
2023-05-07T11:54:58.029Z,102225.53
2023-05-07T11:57:25.829Z,102219.69
2023-05-07T11:59:56.459Z,102227.25
2023-05-07T12:02:23.739Z,102225.00
2023-05-07T12:04:50.554Z,102216.31
2023-05-07T12:07:17.813Z,102220.75
2023-05-07T12:09:44.890Z,102225.03
2023-05-07T12:12:11.890Z,102221.97
2023-05-07T12:14:41.613Z,102217.03
2023-05-07T12:17:09.621Z,102210.84
2023-05-07T12:19:37.754Z,102218.41
2023-05-07T12:22:05.153Z,102173.34
2023-05-07T12:24:49.249Z,102171.69
2023-05-07T12:27:16.824Z,102223.63
2023-05-07T12:29:47.829Z,102218.53
2023-05-07T12:32:18.860Z,102213.19
2023-05-07T12:34:47.086Z,102221.75
2023-05-07T12:37:14.326Z,102211.38
2023-05-07T12:39:50.991Z,102226.34
2023-05-07T12:42:21.309Z,102217.09
2023-05-07T12:44:47.996Z,102214.47
2023-05-07T12:49:43.446Z,102216.81
2023-05-07T12:52:12.165Z,102206.91
2023-05-07T12:54:40.002Z,102214.47
2023-05-07T12:57:08.557Z,102213.41
2023-05-07T12:59:42.884Z,102193.00
2023-05-07T13:02:10.818Z,102208.78
2023-05-07T13:04:37.563Z,102214.09
2023-05-07T13:07:04.205Z,102183.38
2023-05-07T13:09:32.338Z,102201.19
2023-05-07T13:12:02.554Z,102203.81
2023-05-07T13:14:29.302Z,102209.31
2023-05-07T13:16:56.038Z,102196.25
2023-05-07T13:19:22.589Z,102157.50
2023-05-07T13:21:50.789Z,102198.63
2023-05-07T13:24:17.530Z,102194.16
2023-05-07T13:26:46.066Z,102196.84
2023-05-07T13:29:13.042Z,102183.84
2023-05-07T13:31:43.918Z,102185.13
2023-05-07T13:34:11.098Z,102181.31
2023-05-07T13:36:38.312Z,102177.53
2023-05-07T13:39:04.901Z,102180.75
2023-05-07T13:41:31.511Z,102188.78
2023-05-07T13:43:58.183Z,102146.91
2023-05-07T13:46:24.862Z,102185.56
2023-05-07T13:48:52.231Z,102188.63
2023-05-07T13:51:19.451Z,102183.84
2023-05-07T13:53:46.238Z,102183.88
2023-05-07T13:56:13.887Z,102187.94
2023-05-07T13:58:52.044Z,102162.59
2023-05-07T14:01:23.272Z,102186.50
2023-05-07T14:03:50.030Z,102175.94
2023-05-07T14:06:16.862Z,102153.63
2023-05-07T14:08:43.507Z,102169.78
2023-05-07T14:11:10.117Z,102170.41
2023-05-07T14:13:36.801Z,102152.91
2023-05-07T14:16:05.494Z,102095.31
2023-05-07T14:18:32.296Z,102138.09
2023-05-07T14:20:58.905Z,102151.56
2023-05-07T14:23:27.627Z,102146.91
2023-05-07T14:25:54.517Z,102144.53
2023-05-07T14:28:21.362Z,102146.03
2023-05-07T14:30:48.398Z,102154.16
2023-05-07T14:33:15.430Z,102141.59
2023-05-07T14:35:42.339Z,102146.84
2023-05-07T14:38:08.970Z,102137.50
2023-05-07T14:40:35.785Z,102142.13
2023-05-07T14:43:02.436Z,102141.25
2023-05-07T14:45:29.063Z,102109.66
2023-05-07T14:47:55.858Z,102133.47
2023-05-07T14:50:22.635Z,102150.66
2023-05-07T14:52:49.230Z,102146.13
2023-05-07T14:55:15.800Z,102149.44
2023-05-07T14:57:42.385Z,102107.97
2023-05-07T15:00:09.893Z,102081.91
2023-05-07T15:02:36.863Z,102157.06
2023-05-07T15:05:03.701Z,102146.03
2023-05-07T15:07:30.370Z,102147.66
2023-05-07T15:09:57.554Z,102140.56
2023-05-07T15:12:24.288Z,102138.44
2023-05-07T15:14:50.894Z,102143.91
2023-05-07T15:17:17.461Z,102151.38
2023-05-07T15:19:44.052Z,102151.41
2023-05-07T15:22:10.809Z,102145.56
2023-05-07T15:24:37.714Z,102142.59
2023-05-07T15:27:04.572Z,102146.94
2023-05-07T15:29:31.557Z,102144.78
2023-05-07T15:31:58.431Z,102154.00
2023-05-07T15:34:28.482Z,102051.38
2023-05-07T15:36:58.289Z,102145.03
2023-05-07T15:39:25.326Z,102144.53
2023-05-07T15:41:52.006Z,102138.66
2023-05-07T15:44:18.673Z,102141.09
2023-05-07T15:46:45.288Z,102143.34
2023-05-07T15:49:12.031Z,102149.16
2023-05-07T15:51:38.921Z,102145.69
2023-05-07T15:54:05.641Z,102134.63
2023-05-07T15:56:35.161Z,102121.63
2023-05-07T15:59:02.565Z,102144.78
2023-05-07T16:01:29.537Z,102147.06
2023-05-07T16:03:56.318Z,102131.41
2023-05-07T16:06:22.920Z,102144.91
2023-05-07T16:08:49.616Z,102099.66
2023-05-07T16:11:16.207Z,102133.09
2023-05-07T16:13:42.800Z,102057.34
2023-05-07T16:16:09.755Z,102143.63
2023-05-07T16:18:37.182Z,102130.50
2023-05-07T16:21:04.167Z,102145.69
2023-05-07T16:23:31.573Z,102098.13
2023-05-07T16:25:58.196Z,102129.09
2023-05-07T16:28:25.741Z,102108.19
2023-05-07T16:30:52.824Z,102153.25
2023-05-07T16:33:20.084Z,102149.47
2023-05-07T16:35:52.151Z,102142.91
2023-05-07T16:38:18.759Z,102145.22
2023-05-07T16:40:45.448Z,102151.91
2023-05-07T16:43:12.097Z,102146.41
2023-05-07T16:45:38.679Z,102161.31
2023-05-07T16:48:05.735Z,102155.94
2023-05-07T16:50:32.725Z,102147.41
2023-05-07T16:52:59.339Z,102164.16
2023-05-07T16:55:25.975Z,102159.88
2023-05-07T16:57:52.639Z,102150.31
2023-05-07T17:00:19.443Z,102143.75
2023-05-07T17:02:47.170Z,102152.75
2023-05-07T17:05:14.389Z,102152.75
2023-05-07T17:07:41.500Z,102153.00
2023-05-07T17:10:08.640Z,102108.78
2023-05-07T17:12:36.172Z,102139.22
2023-05-07T17:15:03.498Z,102149.47
2023-05-07T17:17:30.195Z,102119.22
2023-05-07T17:19:57.360Z,102145.16
2023-05-07T17:22:25.258Z,102099.56
2023-05-07T17:24:52.072Z,102128.38
2023-05-07T17:27:19.237Z,102148.09
2023-05-07T17:29:45.956Z,102131.78
2023-05-07T17:32:12.595Z,102114.06
2023-05-07T17:34:39.256Z,102143.66
2023-05-07T17:37:05.870Z,102120.47
2023-05-07T17:39:32.741Z,102125.25
2023-05-07T17:41:59.438Z,102157.38
2023-05-07T17:44:26.106Z,102150.25
2023-05-07T17:46:52.757Z,102129.13
2023-05-07T17:49:19.451Z,102113.28
2023-05-07T17:51:54.069Z,102165.06
2023-05-07T17:54:24.349Z,102160.19
2023-05-07T17:56:51.203Z,102172.66
2023-05-07T17:59:17.954Z,102172.38
2023-05-07T18:01:44.777Z,102142.81
2023-05-07T18:04:11.441Z,102165.38
2023-05-07T18:06:38.956Z,102109.78
2023-05-07T18:09:05.762Z,102170.22
2023-05-07T18:11:33.832Z,102175.22
2023-05-07T18:14:01.191Z,102176.72
2023-05-07T18:16:28.036Z,102133.66
2023-05-07T18:18:55.395Z,102188.19
2023-05-07T18:21:22.141Z,102185.03
2023-05-07T18:23:49.162Z,102149.22
2023-05-07T18:26:16.003Z,102181.47
2023-05-07T18:28:43.010Z,102190.94
2023-05-07T18:31:10.599Z,102198.06
2023-05-07T18:33:45.736Z,102199.47
2023-05-07T18:36:12.378Z,102146.88
2023-05-07T18:38:39.160Z,102153.44
2023-05-07T18:41:06.143Z,102200.97
2023-05-07T18:43:34.098Z,102172.13
2023-05-07T18:46:01.192Z,102204.44
2023-05-07T18:48:28.130Z,102176.38
2023-05-07T18:50:54.858Z,102212.25
2023-05-07T18:53:21.570Z,102152.50
2023-05-07T18:55:52.443Z,102212.03
2023-05-07T18:58:20.368Z,102162.69
2023-05-07T19:00:48.050Z,102172.81
2023-05-07T19:03:18.037Z,102215.84
2023-05-07T19:05:45.802Z,102165.41
2023-05-07T19:08:12.633Z,102230.56
2023-05-07T19:10:39.362Z,102242.19
2023-05-07T19:13:06.250Z,102206.03
2023-05-07T19:15:33.127Z,102141.16
2023-05-07T19:17:59.839Z,102243.66
2023-05-07T19:20:26.635Z,102243.03
2023-05-07T19:22:53.174Z,102249.44
2023-05-07T19:25:19.812Z,102173.78
2023-05-07T19:27:48.032Z,102260.66
2023-05-07T19:30:14.853Z,102267.31
2023-05-07T19:32:41.451Z,102271.91
2023-05-07T19:35:08.237Z,102277.88
2023-05-07T19:37:34.893Z,102208.59
2023-05-07T19:40:05.346Z,102270.66
2023-05-07T19:42:32.567Z,102267.78
2023-05-07T19:44:59.299Z,102263.19
2023-05-07T19:47:26.451Z,102284.00
2023-05-07T19:49:53.349Z,102286.28
2023-05-07T19:52:19.921Z,102284.78
2023-05-07T19:54:46.554Z,102258.66
2023-05-07T19:57:13.375Z,102290.13
2023-05-07T19:59:40.775Z,102230.34
2023-05-07T20:02:07.456Z,102290.69
2023-05-07T20:04:38.206Z,102295.16
2023-05-07T20:07:05.969Z,102298.72
2023-05-07T20:09:32.677Z,102303.75
2023-05-07T20:11:59.363Z,102295.50
2023-05-07T20:14:27.121Z,102303.31
2023-05-07T20:16:53.859Z,102302.78
2023-05-07T20:19:20.732Z,102307.69
2023-05-07T20:21:47.346Z,102312.78
2023-05-07T20:24:13.945Z,102315.31
2023-05-07T20:26:41.371Z,102311.19
2023-05-07T20:29:08.157Z,102313.16
2023-05-07T20:31:35.436Z,102319.44
2023-05-07T20:34:02.450Z,102314.78
2023-05-07T20:36:29.185Z,102302.44
2023-05-07T20:38:56.249Z,102325.38
2023-05-07T20:41:25.178Z,102330.78
2023-05-07T20:43:51.991Z,102279.19
2023-05-07T20:46:20.984Z,102322.63
2023-05-07T20:48:48.117Z,102300.81
2023-05-07T20:51:16.158Z,102328.53
2023-05-07T20:53:45.487Z,102333.28
2023-05-07T20:56:13.492Z,102328.22
2023-05-07T20:58:40.043Z,102340.78
2023-05-07T21:01:06.975Z,102339.13
2023-05-07T21:03:33.663Z,102337.66
2023-05-07T21:06:00.733Z,102328.22
2023-05-07T21:08:27.882Z,102283.66
2023-05-07T21:10:54.919Z,102340.59
2023-05-07T21:13:21.943Z,102289.13
2023-05-07T21:15:50.626Z,102333.00
2023-05-07T21:18:19.039Z,102354.19
2023-05-07T21:20:45.731Z,102352.69
2023-05-07T21:23:12.333Z,102356.88
2023-05-07T21:25:39.218Z,102352.56
2023-05-07T21:28:08.021Z,102359.41
2023-05-07T21:30:35.250Z,102336.00
2023-05-07T21:33:01.955Z,102340.34
2023-05-07T21:35:28.689Z,102356.88
2023-05-07T21:37:55.482Z,102368.84
2023-05-07T21:40:22.113Z,102305.47
2023-05-07T21:42:48.700Z,102322.81
2023-05-07T21:45:15.387Z,102357.50
2023-05-07T21:47:41.983Z,102360.63
2023-05-07T21:50:08.979Z,102361.97
2023-05-07T21:52:35.928Z,102359.63
2023-05-07T21:55:02.910Z,102308.78
2023-05-07T21:57:29.519Z,102375.25
2023-05-07T21:59:56.189Z,102322.13
2023-05-07T22:02:23.041Z,102380.28
2023-05-07T22:04:49.725Z,102384.34
2023-05-07T22:07:16.596Z,102342.72
2023-05-07T22:09:43.408Z,102395.53
2023-05-07T22:12:10.012Z,102392.06
2023-05-07T22:14:36.652Z,102330.31
2023-05-07T22:17:03.292Z,102399.59
2023-05-07T22:19:29.969Z,102409.25
2023-05-07T22:21:57.219Z,102404.63
2023-05-07T22:24:23.881Z,102351.31
2023-05-07T22:26:50.610Z,102388.41
2023-05-07T22:29:17.223Z,102391.97
2023-05-07T22:31:43.916Z,102411.19
2023-05-07T22:34:10.647Z,102409.81
2023-05-07T22:36:37.211Z,102403.84
2023-05-07T22:39:07.178Z,102405.75
2023-05-07T22:41:33.760Z,102397.47
2023-05-07T22:44:00.779Z,102411.84
2023-05-07T22:46:27.526Z,102413.00
2023-05-07T22:48:54.217Z,102421.78
2023-05-07T22:51:20.934Z,102262.44
2023-05-07T22:53:47.740Z,102394.47
2023-05-07T22:56:14.506Z,102426.59
2023-05-07T22:58:41.243Z,102423.13
2023-05-07T23:01:15.015Z,102427.66
2023-05-07T23:03:41.716Z,102425.16
2023-05-07T23:06:08.832Z,102413.00
2023-05-07T23:08:35.667Z,102416.66
2023-05-07T23:11:02.239Z,102425.81
2023-05-07T23:13:28.837Z,102425.41
2023-05-07T23:15:55.522Z,102400.53
2023-05-07T23:18:22.149Z,102423.88
2023-05-07T23:20:49.065Z,102376.06
2023-05-07T23:23:15.695Z,102415.75
2023-05-07T23:25:42.249Z,102420.09
2023-05-07T23:28:08.866Z,102415.09
2023-05-07T23:30:40.352Z,102380.13
2023-05-07T23:33:07.322Z,102356.22
2023-05-07T23:35:33.921Z,102427.69
2023-05-07T23:38:00.431Z,102414.94
2023-05-07T23:40:27.324Z,102429.41
2023-05-07T23:42:53.862Z,102414.53
2023-05-07T23:45:20.381Z,102420.94
2023-05-07T23:47:47.080Z,102428.03
2023-05-07T23:50:13.851Z,102429.13
2023-05-07T23:52:40.932Z,102427.38
2023-05-07T23:55:08.636Z,102435.78
2023-05-07T23:57:35.160Z,102365.75
